sensor_id;sensor_type;location;lat;lon;timestamp;P1;durP1;ratioP1;P2;durP2;ratioP2
32321;SDS011;61553;48.994;8.940;2022-11-11T00:00:19;13.35;;;8.02;;
32321;SDS011;61553;48.994;8.940;2022-11-11T00:02:46;19.27;;;9.05;;
32321;SDS011;61553;48.994;8.940;2022-11-11T00:05:13;22.20;;;10.27;;
32321;SDS011;61553;48.994;8.940;2022-11-11T00:07:40;18.23;;;10.68;;
32321;SDS011;61553;48.994;8.940;2022-11-11T00:10:06;19.17;;;10.95;;
32321;SDS011;61553;48.994;8.940;2022-11-11T00:12:31;18.58;;;10.68;;
32321;SDS011;61553;48.994;8.940;2022-11-11T00:14:57;15.85;;;8.32;;
32321;SDS011;61553;48.994;8.940;2022-11-11T00:17:23;15.40;;;7.90;;
32321;SDS011;61553;48.994;8.940;2022-11-11T00:20:09;14.20;;;8.55;;
32321;SDS011;61553;48.994;8.940;2022-11-11T00:22:53;16.05;;;7.85;;
32321;SDS011;61553;48.994;8.940;2022-11-11T00:25:37;16.45;;;6.65;;
32321;SDS011;61553;48.994;8.940;2022-11-11T00:28:03;14.55;;;7.78;;
32321;SDS011;61553;48.994;8.940;2022-11-11T00:30:29;14.10;;;6.88;;
32321;SDS011;61553;48.994;8.940;2022-11-11T00:32:55;11.90;;;7.20;;
32321;SDS011;61553;48.994;8.940;2022-11-11T00:35:20;14.15;;;8.18;;
32321;SDS011;61553;48.994;8.940;2022-11-11T00:38:06;16.98;;;7.05;;
32321;SDS011;61553;48.994;8.940;2022-11-11T00:40:33;21.92;;;7.60;;
32321;SDS011;61553;48.994;8.940;2022-11-11T00:42:58;11.73;;;7.13;;
32321;SDS011;61553;48.994;8.940;2022-11-11T00:45:24;11.48;;;7.10;;
32321;SDS011;61553;48.994;8.940;2022-11-11T00:47:50;13.05;;;6.55;;
32321;SDS011;61553;48.994;8.940;2022-11-11T00:50:34;11.38;;;6.85;;
32321;SDS011;61553;48.994;8.940;2022-11-11T00:53:22;17.40;;;7.75;;
32321;SDS011;61553;48.994;8.940;2022-11-11T00:55:49;14.23;;;8.18;;
32321;SDS011;61553;48.994;8.940;2022-11-11T00:58:16;10.52;;;6.75;;
32321;SDS011;61553;48.994;8.940;2022-11-11T01:00:42;10.38;;;6.85;;
32321;SDS011;61553;48.994;8.940;2022-11-11T01:03:08;11.70;;;6.38;;
32321;SDS011;61553;48.994;8.940;2022-11-11T01:05:35;12.23;;;7.47;;
32321;SDS011;61553;48.994;8.940;2022-11-11T01:08:02;9.93;;;6.03;;
32321;SDS011;61553;48.994;8.940;2022-11-11T01:10:28;12.65;;;6.88;;
32321;SDS011;61553;48.994;8.940;2022-11-11T01:13:22;8.35;;;5.90;;
32321;SDS011;61553;48.994;8.940;2022-11-11T01:15:50;11.23;;;6.20;;
32321;SDS011;61553;48.994;8.940;2022-11-11T01:18:19;10.82;;;6.20;;
32321;SDS011;61553;48.994;8.940;2022-11-11T01:20:46;16.90;;;9.65;;
32321;SDS011;61553;48.994;8.940;2022-11-11T01:23:13;44.33;;;23.58;;
32321;SDS011;61553;48.994;8.940;2022-11-11T01:25:40;23.27;;;12.10;;
32321;SDS011;61553;48.994;8.940;2022-11-11T01:28:06;25.13;;;12.95;;
32321;SDS011;61553;48.994;8.940;2022-11-11T01:30:33;21.23;;;10.43;;
32321;SDS011;61553;48.994;8.940;2022-11-11T01:33:00;14.38;;;8.77;;
32321;SDS011;61553;48.994;8.940;2022-11-11T01:35:26;16.35;;;8.18;;
32321;SDS011;61553;48.994;8.940;2022-11-11T01:37:52;13.85;;;7.60;;
32321;SDS011;61553;48.994;8.940;2022-11-11T01:40:18;14.30;;;8.02;;
32321;SDS011;61553;48.994;8.940;2022-11-11T01:42:51;10.55;;;7.28;;
32321;SDS011;61553;48.994;8.940;2022-11-11T01:48:20;13.57;;;7.20;;
32321;SDS011;61553;48.994;8.940;2022-11-11T01:51:14;11.23;;;6.65;;
32321;SDS011;61553;48.994;8.940;2022-11-11T01:53:59;11.73;;;7.20;;
32321;SDS011;61553;48.994;8.940;2022-11-11T01:56:30;12.30;;;6.88;;
32321;SDS011;61553;48.994;8.940;2022-11-11T01:58:57;11.80;;;5.70;;
32321;SDS011;61553;48.994;8.940;2022-11-11T02:01:27;9.40;;;5.63;;
32321;SDS011;61553;48.994;8.940;2022-11-11T02:03:53;9.65;;;5.90;;
32321;SDS011;61553;48.994;8.940;2022-11-11T02:06:39;9.95;;;5.28;;
32321;SDS011;61553;48.994;8.940;2022-11-11T02:09:05;15.80;;;7.07;;
32321;SDS011;61553;48.994;8.940;2022-11-11T02:11:32;9.52;;;5.80;;
32321;SDS011;61553;48.994;8.940;2022-11-11T02:14:18;9.57;;;5.72;;
32321;SDS011;61553;48.994;8.940;2022-11-11T02:17:08;9.65;;;5.22;;
32321;SDS011;61553;48.994;8.940;2022-11-11T02:19:53;9.27;;;5.75;;
32321;SDS011;61553;48.994;8.940;2022-11-11T02:24:54;10.50;;;5.95;;
32321;SDS011;61553;48.994;8.940;2022-11-11T02:27:22;15.50;;;8.90;;
32321;SDS011;61553;48.994;8.940;2022-11-11T02:29:50;11.77;;;7.10;;
32321;SDS011;61553;48.994;8.940;2022-11-11T02:32:19;12.88;;;7.95;;
32321;SDS011;61553;48.994;8.940;2022-11-11T02:34:45;13.13;;;7.88;;
32321;SDS011;61553;48.994;8.940;2022-11-11T02:37:11;17.30;;;8.75;;
32321;SDS011;61553;48.994;8.940;2022-11-11T02:39:41;15.98;;;8.43;;
32321;SDS011;61553;48.994;8.940;2022-11-11T02:42:12;16.00;;;9.02;;
32321;SDS011;61553;48.994;8.940;2022-11-11T02:44:39;20.75;;;9.23;;
32321;SDS011;61553;48.994;8.940;2022-11-11T02:47:05;17.02;;;9.75;;
32321;SDS011;61553;48.994;8.940;2022-11-11T02:49:31;17.65;;;10.55;;
32321;SDS011;61553;48.994;8.940;2022-11-11T02:51:57;18.40;;;9.40;;
32321;SDS011;61553;48.994;8.940;2022-11-11T02:54:22;25.85;;;10.57;;
32321;SDS011;61553;48.994;8.940;2022-11-11T02:56:48;17.13;;;9.18;;
32321;SDS011;61553;48.994;8.940;2022-11-11T02:59:33;20.02;;;10.68;;
32321;SDS011;61553;48.994;8.940;2022-11-11T03:02:04;16.67;;;9.32;;
32321;SDS011;61553;48.994;8.940;2022-11-11T03:04:31;18.80;;;9.05;;
32321;SDS011;61553;48.994;8.940;2022-11-11T03:06:56;24.60;;;11.30;;
32321;SDS011;61553;48.994;8.940;2022-11-11T03:09:22;38.03;;;13.43;;
32321;SDS011;61553;48.994;8.940;2022-11-11T03:11:48;38.17;;;13.70;;
32321;SDS011;61553;48.994;8.940;2022-11-11T03:14:14;36.38;;;12.43;;
32321;SDS011;61553;48.994;8.940;2022-11-11T03:16:39;21.45;;;10.02;;
32321;SDS011;61553;48.994;8.940;2022-11-11T03:19:24;15.18;;;7.57;;
32321;SDS011;61553;48.994;8.940;2022-11-11T03:21:49;18.45;;;8.68;;
32321;SDS011;61553;48.994;8.940;2022-11-11T03:24:15;15.75;;;6.97;;
32321;SDS011;61553;48.994;8.940;2022-11-11T03:26:40;14.35;;;6.57;;
32321;SDS011;61553;48.994;8.940;2022-11-11T03:29:06;11.73;;;5.60;;
32321;SDS011;61553;48.994;8.940;2022-11-11T03:31:32;12.23;;;6.88;;
32321;SDS011;61553;48.994;8.940;2022-11-11T03:33:57;12.80;;;7.00;;
32321;SDS011;61553;48.994;8.940;2022-11-11T03:36:42;13.07;;;6.00;;
32321;SDS011;61553;48.994;8.940;2022-11-11T03:39:27;11.10;;;5.82;;
32321;SDS011;61553;48.994;8.940;2022-11-11T03:41:54;9.45;;;6.35;;
32321;SDS011;61553;48.994;8.940;2022-11-11T03:44:22;13.00;;;6.45;;
32321;SDS011;61553;48.994;8.940;2022-11-11T03:46:48;10.73;;;5.93;;
32321;SDS011;61553;48.994;8.940;2022-11-11T03:49:14;13.88;;;6.90;;
32321;SDS011;61553;48.994;8.940;2022-11-11T03:51:39;10.23;;;6.40;;
32321;SDS011;61553;48.994;8.940;2022-11-11T03:54:05;11.50;;;6.47;;
32321;SDS011;61553;48.994;8.940;2022-11-11T03:56:31;15.63;;;6.95;;
32321;SDS011;61553;48.994;8.940;2022-11-11T03:58:56;13.13;;;6.22;;
32321;SDS011;61553;48.994;8.940;2022-11-11T04:01:22;10.07;;;6.57;;
32321;SDS011;61553;48.994;8.940;2022-11-11T04:04:07;12.90;;;7.10;;
32321;SDS011;61553;48.994;8.940;2022-11-11T04:06:51;17.38;;;7.22;;
32321;SDS011;61553;48.994;8.940;2022-11-11T04:09:35;14.23;;;6.95;;
32321;SDS011;61553;48.994;8.940;2022-11-11T04:12:19;9.93;;;6.05;;
32321;SDS011;61553;48.994;8.940;2022-11-11T04:14:46;12.45;;;6.75;;
32321;SDS011;61553;48.994;8.940;2022-11-11T04:17:30;11.98;;;6.45;;
32321;SDS011;61553;48.994;8.940;2022-11-11T04:19:56;10.63;;;5.68;;
32321;SDS011;61553;48.994;8.940;2022-11-11T04:22:43;12.30;;;5.88;;
32321;SDS011;61553;48.994;8.940;2022-11-11T04:25:08;11.07;;;6.00;;
32321;SDS011;61553;48.994;8.940;2022-11-11T04:27:56;12.88;;;5.63;;
32321;SDS011;61553;48.994;8.940;2022-11-11T04:30:40;11.77;;;6.63;;
32321;SDS011;61553;48.994;8.940;2022-11-11T04:33:05;11.70;;;6.78;;
32321;SDS011;61553;48.994;8.940;2022-11-11T04:35:31;14.00;;;6.00;;
32321;SDS011;61553;48.994;8.940;2022-11-11T04:37:57;15.77;;;6.53;;
32321;SDS011;61553;48.994;8.940;2022-11-11T04:40:43;11.43;;;6.25;;
32321;SDS011;61553;48.994;8.940;2022-11-11T04:43:40;11.20;;;5.72;;
32321;SDS011;61553;48.994;8.940;2022-11-11T04:46:25;9.80;;;5.40;;
32321;SDS011;61553;48.994;8.940;2022-11-11T04:48:50;11.13;;;5.47;;
32321;SDS011;61553;48.994;8.940;2022-11-11T04:51:16;13.10;;;5.95;;
32321;SDS011;61553;48.994;8.940;2022-11-11T04:53:41;13.10;;;5.90;;
32321;SDS011;61553;48.994;8.940;2022-11-11T04:56:07;11.30;;;4.82;;
32321;SDS011;61553;48.994;8.940;2022-11-11T04:58:51;13.57;;;5.70;;
32321;SDS011;61553;48.994;8.940;2022-11-11T05:01:37;10.27;;;5.97;;
32321;SDS011;61553;48.994;8.940;2022-11-11T05:04:21;10.23;;;5.97;;
32321;SDS011;61553;48.994;8.940;2022-11-11T05:06:46;11.95;;;6.80;;
32321;SDS011;61553;48.994;8.940;2022-11-11T05:09:31;12.25;;;6.65;;
32321;SDS011;61553;48.994;8.940;2022-11-11T05:11:56;13.93;;;6.40;;
32321;SDS011;61553;48.994;8.940;2022-11-11T05:14:22;15.85;;;6.32;;
32321;SDS011;61553;48.994;8.940;2022-11-11T05:17:07;12.07;;;6.20;;
32321;SDS011;61553;48.994;8.940;2022-11-11T05:19:51;12.20;;;6.05;;
32321;SDS011;61553;48.994;8.940;2022-11-11T05:22:36;10.70;;;5.75;;
32321;SDS011;61553;48.994;8.940;2022-11-11T05:25:04;13.02;;;6.38;;
32321;SDS011;61553;48.994;8.940;2022-11-11T05:27:49;15.93;;;5.70;;
32321;SDS011;61553;48.994;8.940;2022-11-11T05:30:15;8.68;;;5.57;;
32321;SDS011;61553;48.994;8.940;2022-11-11T05:32:41;14.68;;;6.25;;
32321;SDS011;61553;48.994;8.940;2022-11-11T05:35:07;9.80;;;5.90;;
32321;SDS011;61553;48.994;8.940;2022-11-11T05:37:34;8.85;;;5.45;;
32321;SDS011;61553;48.994;8.940;2022-11-11T05:39:59;10.60;;;6.50;;
32321;SDS011;61553;48.994;8.940;2022-11-11T05:42:25;11.77;;;6.38;;
32321;SDS011;61553;48.994;8.940;2022-11-11T05:44:51;12.32;;;5.75;;
32321;SDS011;61553;48.994;8.940;2022-11-11T05:47:17;10.85;;;5.75;;
32321;SDS011;61553;48.994;8.940;2022-11-11T05:49:43;12.93;;;6.75;;
32321;SDS011;61553;48.994;8.940;2022-11-11T05:52:09;9.52;;;6.15;;
32321;SDS011;61553;48.994;8.940;2022-11-11T05:54:36;43.13;;;8.60;;
32321;SDS011;61553;48.994;8.940;2022-11-11T05:57:02;10.05;;;6.18;;
32321;SDS011;61553;48.994;8.940;2022-11-11T05:59:28;11.50;;;6.22;;
32321;SDS011;61553;48.994;8.940;2022-11-11T06:01:54;13.77;;;7.95;;
32321;SDS011;61553;48.994;8.940;2022-11-11T06:04:20;29.17;;;8.40;;
32321;SDS011;61553;48.994;8.940;2022-11-11T06:06:45;11.75;;;7.22;;
32321;SDS011;61553;48.994;8.940;2022-11-11T06:09:11;12.82;;;6.63;;
32321;SDS011;61553;48.994;8.940;2022-11-11T06:11:37;17.42;;;7.47;;
32321;SDS011;61553;48.994;8.940;2022-11-11T06:14:02;21.83;;;8.80;;
32321;SDS011;61553;48.994;8.940;2022-11-11T06:16:28;12.95;;;6.60;;
32321;SDS011;61553;48.994;8.940;2022-11-11T06:18:54;18.35;;;7.65;;
32321;SDS011;61553;48.994;8.940;2022-11-11T06:21:20;15.13;;;10.52;;
32321;SDS011;61553;48.994;8.940;2022-11-11T06:23:45;19.33;;;12.35;;
32321;SDS011;61553;48.994;8.940;2022-11-11T06:26:11;29.40;;;15.70;;
32321;SDS011;61553;48.994;8.940;2022-11-11T06:31:32;40.13;;;16.85;;
32321;SDS011;61553;48.994;8.940;2022-11-11T06:33:58;46.42;;;18.08;;
32321;SDS011;61553;48.994;8.940;2022-11-11T06:36:23;29.17;;;13.00;;
32321;SDS011;61553;48.994;8.940;2022-11-11T06:38:49;26.60;;;12.30;;
32321;SDS011;61553;48.994;8.940;2022-11-11T06:41:15;30.70;;;14.60;;
32321;SDS011;61553;48.994;8.940;2022-11-11T06:43:43;49.97;;;16.30;;
32321;SDS011;61553;48.994;8.940;2022-11-11T06:46:15;25.92;;;11.50;;
32321;SDS011;61553;48.994;8.940;2022-11-11T06:48:48;48.72;;;15.38;;
32321;SDS011;61553;48.994;8.940;2022-11-11T06:51:14;24.08;;;12.85;;
32321;SDS011;61553;48.994;8.940;2022-11-11T06:53:40;25.23;;;12.35;;
32321;SDS011;61553;48.994;8.940;2022-11-11T06:56:06;62.70;;;16.42;;
32321;SDS011;61553;48.994;8.940;2022-11-11T06:58:33;23.65;;;11.20;;
32321;SDS011;61553;48.994;8.940;2022-11-11T07:00:58;56.15;;;19.73;;
32321;SDS011;61553;48.994;8.940;2022-11-11T07:03:32;22.83;;;14.07;;
32321;SDS011;61553;48.994;8.940;2022-11-11T07:05:59;25.05;;;13.65;;
32321;SDS011;61553;48.994;8.940;2022-11-11T07:08:26;68.30;;;24.10;;
32321;SDS011;61553;48.994;8.940;2022-11-11T07:10:52;38.13;;;20.35;;
32321;SDS011;61553;48.994;8.940;2022-11-11T07:13:17;42.67;;;18.50;;
32321;SDS011;61553;48.994;8.940;2022-11-11T07:15:43;37.95;;;13.93;;
32321;SDS011;61553;48.994;8.940;2022-11-11T07:18:09;18.08;;;10.40;;
32321;SDS011;61553;48.994;8.940;2022-11-11T07:20:36;25.35;;;11.80;;
32321;SDS011;61553;48.994;8.940;2022-11-11T07:23:02;15.07;;;9.52;;
32321;SDS011;61553;48.994;8.940;2022-11-11T07:25:28;41.65;;;12.50;;
32321;SDS011;61553;48.994;8.940;2022-11-11T07:27:54;34.38;;;12.57;;
32321;SDS011;61553;48.994;8.940;2022-11-11T07:30:20;27.80;;;12.23;;
32321;SDS011;61553;48.994;8.940;2022-11-11T07:32:46;31.85;;;12.18;;
32321;SDS011;61553;48.994;8.940;2022-11-11T07:35:13;28.15;;;14.52;;
32321;SDS011;61553;48.994;8.940;2022-11-11T07:37:40;49.25;;;17.23;;
32321;SDS011;61553;48.994;8.940;2022-11-11T07:40:06;84.25;;;26.35;;
32321;SDS011;61553;48.994;8.940;2022-11-11T07:42:36;79.63;;;29.38;;
32321;SDS011;61553;48.994;8.940;2022-11-11T07:45:03;42.42;;;23.67;;
32321;SDS011;61553;48.994;8.940;2022-11-11T07:47:29;38.05;;;22.92;;
32321;SDS011;61553;48.994;8.940;2022-11-11T07:49:54;70.32;;;27.35;;
32321;SDS011;61553;48.994;8.940;2022-11-11T07:52:20;44.80;;;19.88;;
32321;SDS011;61553;48.994;8.940;2022-11-11T07:54:47;29.40;;;14.68;;
32321;SDS011;61553;48.994;8.940;2022-11-11T07:57:13;50.08;;;16.88;;
32321;SDS011;61553;48.994;8.940;2022-11-11T07:59:39;23.92;;;12.63;;
32321;SDS011;61553;48.994;8.940;2022-11-11T08:02:08;23.05;;;13.60;;
32321;SDS011;61553;48.994;8.940;2022-11-11T08:04:34;24.80;;;14.68;;
32321;SDS011;61553;48.994;8.940;2022-11-11T08:07:00;32.20;;;15.45;;
32321;SDS011;61553;48.994;8.940;2022-11-11T08:09:25;43.92;;;16.70;;
32321;SDS011;61553;48.994;8.940;2022-11-11T08:11:51;44.90;;;15.52;;
32321;SDS011;61553;48.994;8.940;2022-11-11T08:14:35;42.17;;;16.55;;
32321;SDS011;61553;48.994;8.940;2022-11-11T08:17:01;70.68;;;18.60;;
32321;SDS011;61553;48.994;8.940;2022-11-11T08:19:26;40.25;;;20.33;;
32321;SDS011;61553;48.994;8.940;2022-11-11T08:21:52;50.08;;;24.85;;
32321;SDS011;61553;48.994;8.940;2022-11-11T08:24:17;112.43;;;32.00;;
32321;SDS011;61553;48.994;8.940;2022-11-11T08:26:44;125.57;;;40.78;;
32321;SDS011;61553;48.994;8.940;2022-11-11T08:29:10;112.13;;;40.22;;
32321;SDS011;61553;48.994;8.940;2022-11-11T08:31:35;204.35;;;45.63;;
32321;SDS011;61553;48.994;8.940;2022-11-11T08:34:03;61.22;;;34.80;;
32321;SDS011;61553;48.994;8.940;2022-11-11T08:36:29;96.72;;;37.30;;
32321;SDS011;61553;48.994;8.940;2022-11-11T08:38:54;57.80;;;29.73;;
32321;SDS011;61553;48.994;8.940;2022-11-11T08:41:20;57.33;;;33.58;;
32321;SDS011;61553;48.994;8.940;2022-11-11T08:43:50;37.75;;;23.98;;
32321;SDS011;61553;48.994;8.940;2022-11-11T08:46:19;34.92;;;21.42;;
32321;SDS011;61553;48.994;8.940;2022-11-11T08:48:45;36.55;;;22.55;;
32321;SDS011;61553;48.994;8.940;2022-11-11T08:51:11;31.15;;;18.30;;
32321;SDS011;61553;48.994;8.940;2022-11-11T08:53:38;23.13;;;14.55;;
32321;SDS011;61553;48.994;8.940;2022-11-11T08:56:04;27.48;;;17.65;;
32321;SDS011;61553;48.994;8.940;2022-11-11T08:58:30;19.25;;;14.15;;
32321;SDS011;61553;48.994;8.940;2022-11-11T09:00:55;15.18;;;11.18;;
32321;SDS011;61553;48.994;8.940;2022-11-11T09:03:21;14.13;;;9.95;;
32321;SDS011;61553;48.994;8.940;2022-11-11T09:05:47;12.73;;;9.20;;
32321;SDS011;61553;48.994;8.940;2022-11-11T09:08:13;13.73;;;9.57;;
32321;SDS011;61553;48.994;8.940;2022-11-11T09:10:38;15.63;;;11.02;;
32321;SDS011;61553;48.994;8.940;2022-11-11T09:13:04;10.02;;;6.00;;
32321;SDS011;61553;48.994;8.940;2022-11-11T09:15:30;12.13;;;7.47;;
32321;SDS011;61553;48.994;8.940;2022-11-11T09:17:56;10.48;;;5.15;;
32321;SDS011;61553;48.994;8.940;2022-11-11T09:20:22;6.88;;;3.85;;
32321;SDS011;61553;48.994;8.940;2022-11-11T09:22:48;9.98;;;3.70;;
32321;SDS011;61553;48.994;8.940;2022-11-11T09:25:15;9.50;;;4.57;;
32321;SDS011;61553;48.994;8.940;2022-11-11T09:27:41;9.40;;;6.25;;
32321;SDS011;61553;48.994;8.940;2022-11-11T09:30:07;10.18;;;4.50;;
32321;SDS011;61553;48.994;8.940;2022-11-11T09:32:34;8.30;;;4.07;;
32321;SDS011;61553;48.994;8.940;2022-11-11T09:35:01;8.88;;;3.83;;
32321;SDS011;61553;48.994;8.940;2022-11-11T09:37:27;5.85;;;4.03;;
32321;SDS011;61553;48.994;8.940;2022-11-11T09:39:53;8.05;;;4.38;;
32321;SDS011;61553;48.994;8.940;2022-11-11T09:42:38;8.82;;;5.20;;
32321;SDS011;61553;48.994;8.940;2022-11-11T09:50:41;8.23;;;5.25;;
32321;SDS011;61553;48.994;8.940;2022-11-11T09:53:22;9.13;;;5.88;;
32321;SDS011;61553;48.994;8.940;2022-11-11T09:56:11;9.85;;;6.53;;
32321;SDS011;61553;48.994;8.940;2022-11-11T10:01:17;9.43;;;6.55;;
32321;SDS011;61553;48.994;8.940;2022-11-11T10:03:51;10.90;;;5.28;;
32321;SDS011;61553;48.994;8.940;2022-11-11T10:06:28;10.35;;;5.25;;
32321;SDS011;61553;48.994;8.940;2022-11-11T10:09:01;9.63;;;5.10;;
32321;SDS011;61553;48.994;8.940;2022-11-11T10:12:01;9.60;;;5.32;;
32321;SDS011;61553;48.994;8.940;2022-11-11T10:14:42;9.23;;;5.00;;
32321;SDS011;61553;48.994;8.940;2022-11-11T10:27:37;9.02;;;5.63;;
32321;SDS011;61553;48.994;8.940;2022-11-11T10:32:52;16.25;;;9.82;;
32321;SDS011;61553;48.994;8.940;2022-11-11T10:35:26;12.07;;;5.20;;
32321;SDS011;61553;48.994;8.940;2022-11-11T10:38:01;17.45;;;11.30;;
32321;SDS011;61553;48.994;8.940;2022-11-11T10:40:39;13.85;;;8.25;;
32321;SDS011;61553;48.994;8.940;2022-11-11T10:43:26;17.33;;;10.32;;
32321;SDS011;61553;48.994;8.940;2022-11-11T10:48:37;8.25;;;5.05;;
32321;SDS011;61553;48.994;8.940;2022-11-11T10:51:07;8.70;;;5.28;;
32321;SDS011;61553;48.994;8.940;2022-11-11T10:54:16;9.93;;;6.20;;
32321;SDS011;61553;48.994;8.940;2022-11-11T10:56:42;7.00;;;5.53;;
32321;SDS011;61553;48.994;8.940;2022-11-11T10:59:13;10.45;;;6.45;;
32321;SDS011;61553;48.994;8.940;2022-11-11T11:02:00;8.63;;;4.05;;
32321;SDS011;61553;48.994;8.940;2022-11-11T11:04:41;9.13;;;4.38;;
32321;SDS011;61553;48.994;8.940;2022-11-11T11:07:13;25.63;;;16.63;;
32321;SDS011;61553;48.994;8.940;2022-11-11T11:09:48;7.05;;;3.53;;
32321;SDS011;61553;48.994;8.940;2022-11-11T11:15:19;9.00;;;3.67;;
32321;SDS011;61553;48.994;8.940;2022-11-11T11:18:03;9.02;;;5.03;;
32321;SDS011;61553;48.994;8.940;2022-11-11T11:20:29;9.60;;;3.80;;
32321;SDS011;61553;48.994;8.940;2022-11-11T11:22:56;9.25;;;3.80;;
32321;SDS011;61553;48.994;8.940;2022-11-11T11:25:24;8.23;;;3.80;;
32321;SDS011;61553;48.994;8.940;2022-11-11T11:27:52;8.82;;;3.70;;
32321;SDS011;61553;48.994;8.940;2022-11-11T11:30:28;10.45;;;3.70;;
32321;SDS011;61553;48.994;8.940;2022-11-11T11:32:58;10.98;;;6.43;;
32321;SDS011;61553;48.994;8.940;2022-11-11T11:37:54;10.20;;;4.32;;
32321;SDS011;61553;48.994;8.940;2022-11-11T11:40:20;11.68;;;4.90;;
32321;SDS011;61553;48.994;8.940;2022-11-11T11:42:45;8.10;;;4.50;;
32321;SDS011;61553;48.994;8.940;2022-11-11T11:45:27;11.20;;;4.82;;
32321;SDS011;61553;48.994;8.940;2022-11-11T11:58:39;13.98;;;6.40;;
32321;SDS011;61553;48.994;8.940;2022-11-11T12:01:21;10.70;;;6.93;;
32321;SDS011;61553;48.994;8.940;2022-11-11T12:06:38;11.13;;;5.57;;
32321;SDS011;61553;48.994;8.940;2022-11-11T12:17:01;13.03;;;6.93;;
32321;SDS011;61553;48.994;8.940;2022-11-11T12:31:09;10.95;;;6.93;;
32321;SDS011;61553;48.994;8.940;2022-11-11T12:36:15;15.50;;;8.77;;
32321;SDS011;61553;48.994;8.940;2022-11-11T12:44:40;11.80;;;5.93;;
32321;SDS011;61553;48.994;8.940;2022-11-11T12:48:02;14.52;;;6.50;;
32321;SDS011;61553;48.994;8.940;2022-11-11T12:53:13;9.75;;;6.35;;
32321;SDS011;61553;48.994;8.940;2022-11-11T12:58:37;12.60;;;6.32;;
32321;SDS011;61553;48.994;8.940;2022-11-11T13:12:23;12.10;;;6.32;;
32321;SDS011;61553;48.994;8.940;2022-11-11T13:17:48;11.48;;;5.80;;
32321;SDS011;61553;48.994;8.940;2022-11-11T13:22:47;11.00;;;5.50;;
32321;SDS011;61553;48.994;8.940;2022-11-11T13:25:24;11.57;;;5.30;;
32321;SDS011;61553;48.994;8.940;2022-11-11T13:28:14;9.00;;;5.05;;
32321;SDS011;61553;48.994;8.940;2022-11-11T13:33:44;8.85;;;5.32;;
32321;SDS011;61553;48.994;8.940;2022-11-11T13:36:16;17.95;;;8.25;;
32321;SDS011;61553;48.994;8.940;2022-11-11T13:38:56;13.07;;;5.60;;
32321;SDS011;61553;48.994;8.940;2022-11-11T13:43:52;8.30;;;4.68;;
32321;SDS011;61553;48.994;8.940;2022-11-11T13:49:34;11.10;;;5.30;;
32321;SDS011;61553;48.994;8.940;2022-11-11T13:52:20;12.27;;;5.78;;
32321;SDS011;61553;48.994;8.940;2022-11-11T13:54:57;9.65;;;5.85;;
32321;SDS011;61553;48.994;8.940;2022-11-11T13:57:30;11.93;;;5.35;;
32321;SDS011;61553;48.994;8.940;2022-11-11T14:00:03;9.82;;;4.95;;
32321;SDS011;61553;48.994;8.940;2022-11-11T14:02:35;8.98;;;5.00;;
32321;SDS011;61553;48.994;8.940;2022-11-11T14:12:51;13.75;;;9.07;;
32321;SDS011;61553;48.994;8.940;2022-11-11T14:20:44;22.90;;;10.55;;
32321;SDS011;61553;48.994;8.940;2022-11-11T14:25:46;16.95;;;8.10;;
32321;SDS011;61553;48.994;8.940;2022-11-11T14:30:51;13.13;;;6.43;;
32321;SDS011;61553;48.994;8.940;2022-11-11T14:36:08;10.57;;;5.22;;
32321;SDS011;61553;48.994;8.940;2022-11-11T14:38:51;11.13;;;5.13;;
32321;SDS011;61553;48.994;8.940;2022-11-11T14:52:36;9.63;;;4.43;;
32321;SDS011;61553;48.994;8.940;2022-11-11T14:55:28;8.50;;;5.35;;
32321;SDS011;61553;48.994;8.940;2022-11-11T15:03:09;12.00;;;8.98;;
32321;SDS011;61553;48.994;8.940;2022-11-11T15:05:47;13.30;;;6.55;;
32321;SDS011;61553;48.994;8.940;2022-11-11T15:08:22;9.65;;;6.22;;
32321;SDS011;61553;48.994;8.940;2022-11-11T15:10:56;10.77;;;4.80;;
32321;SDS011;61553;48.994;8.940;2022-11-11T15:19:00;8.13;;;4.47;;
32321;SDS011;61553;48.994;8.940;2022-11-11T15:21:48;10.13;;;5.00;;
32321;SDS011;61553;48.994;8.940;2022-11-11T15:24:41;6.18;;;4.00;;
32321;SDS011;61553;48.994;8.940;2022-11-11T15:27:43;8.80;;;4.78;;
32321;SDS011;61553;48.994;8.940;2022-11-11T15:30:16;10.27;;;4.47;;
32321;SDS011;61553;48.994;8.940;2022-11-11T15:38:19;9.68;;;4.53;;
32321;SDS011;61553;48.994;8.940;2022-11-11T15:40:46;11.13;;;4.38;;
32321;SDS011;61553;48.994;8.940;2022-11-11T15:43:19;7.30;;;3.75;;
32321;SDS011;61553;48.994;8.940;2022-11-11T15:46:03;10.20;;;5.03;;
32321;SDS011;61553;48.994;8.940;2022-11-11T15:48:32;7.18;;;4.15;;
32321;SDS011;61553;48.994;8.940;2022-11-11T15:53:45;9.55;;;3.75;;
32321;SDS011;61553;48.994;8.940;2022-11-11T15:56:25;9.00;;;3.38;;
32321;SDS011;61553;48.994;8.940;2022-11-11T15:58:55;11.25;;;4.05;;
32321;SDS011;61553;48.994;8.940;2022-11-11T16:01:21;9.60;;;4.57;;
32321;SDS011;61553;48.994;8.940;2022-11-11T16:03:50;8.75;;;3.83;;
32321;SDS011;61553;48.994;8.940;2022-11-11T16:06:17;8.40;;;4.18;;
32321;SDS011;61553;48.994;8.940;2022-11-11T16:08:43;7.57;;;4.07;;
32321;SDS011;61553;48.994;8.940;2022-11-11T16:11:14;7.05;;;3.85;;
32321;SDS011;61553;48.994;8.940;2022-11-11T16:14:01;7.80;;;3.78;;
32321;SDS011;61553;48.994;8.940;2022-11-11T16:16:32;10.98;;;4.38;;
32321;SDS011;61553;48.994;8.940;2022-11-11T16:19:06;8.68;;;3.83;;
32321;SDS011;61553;48.994;8.940;2022-11-11T16:21:43;10.40;;;5.63;;
32321;SDS011;61553;48.994;8.940;2022-11-11T16:26:46;8.40;;;3.90;;
32321;SDS011;61553;48.994;8.940;2022-11-11T16:29:12;10.38;;;6.07;;
32321;SDS011;61553;48.994;8.940;2022-11-11T16:31:40;11.20;;;4.97;;
32321;SDS011;61553;48.994;8.940;2022-11-11T16:37:01;9.10;;;4.70;;
32321;SDS011;61553;48.994;8.940;2022-11-11T16:39:28;10.10;;;4.00;;
32321;SDS011;61553;48.994;8.940;2022-11-11T16:41:55;11.75;;;4.72;;
32321;SDS011;61553;48.994;8.940;2022-11-11T16:44:29;10.32;;;5.60;;
32321;SDS011;61553;48.994;8.940;2022-11-11T16:52:40;13.23;;;8.25;;
32321;SDS011;61553;48.994;8.940;2022-11-11T16:55:15;171.45;;;104.70;;
32321;SDS011;61553;48.994;8.940;2022-11-11T16:57:49;18.02;;;11.50;;
32321;SDS011;61553;48.994;8.940;2022-11-11T17:00:16;12.65;;;7.85;;
32321;SDS011;61553;48.994;8.940;2022-11-11T17:02:43;15.27;;;10.10;;
32321;SDS011;61553;48.994;8.940;2022-11-11T17:05:09;21.80;;;12.25;;
32321;SDS011;61553;48.994;8.940;2022-11-11T17:07:36;22.13;;;13.13;;
32321;SDS011;61553;48.994;8.940;2022-11-11T17:12:33;13.50;;;7.75;;
32321;SDS011;61553;48.994;8.940;2022-11-11T17:15:01;10.00;;;6.45;;
32321;SDS011;61553;48.994;8.940;2022-11-11T17:17:30;26.70;;;19.67;;
32321;SDS011;61553;48.994;8.940;2022-11-11T17:19:56;60.03;;;37.15;;
32321;SDS011;61553;48.994;8.940;2022-11-11T17:22:26;18.85;;;11.52;;
32321;SDS011;61553;48.994;8.940;2022-11-11T17:24:51;82.40;;;43.95;;
32321;SDS011;61553;48.994;8.940;2022-11-11T17:27:17;61.88;;;33.80;;
32321;SDS011;61553;48.994;8.940;2022-11-11T17:29:43;47.95;;;26.15;;
32321;SDS011;61553;48.994;8.940;2022-11-11T17:32:08;23.40;;;13.57;;
32321;SDS011;61553;48.994;8.940;2022-11-11T17:34:34;12.77;;;8.57;;
32321;SDS011;61553;48.994;8.940;2022-11-11T17:37:00;12.35;;;6.68;;
32321;SDS011;61553;48.994;8.940;2022-11-11T17:39:26;10.23;;;5.18;;
32321;SDS011;61553;48.994;8.940;2022-11-11T17:41:51;11.95;;;5.63;;
32321;SDS011;61553;48.994;8.940;2022-11-11T17:44:17;12.13;;;7.85;;
32321;SDS011;61553;48.994;8.940;2022-11-11T17:46:43;36.92;;;26.25;;
32321;SDS011;61553;48.994;8.940;2022-11-11T17:49:08;23.02;;;15.73;;